sensor_id;sensor_type;location;lat;lon;timestamp;P1;durP1;ratioP1;P2;durP2;ratioP2
12356;SDS011;6243;51.244;6.774;2023-10-31T00:00:20;3.97;;;3.67;;
12356;SDS011;6243;51.244;6.774;2023-10-31T00:02:46;3.90;;;3.60;;
12356;SDS011;6243;51.244;6.774;2023-10-31T00:05:11;3.77;;;3.47;;
12356;SDS011;6243;51.244;6.774;2023-10-31T00:07:37;4.07;;;3.77;;
12356;SDS011;6243;51.244;6.774;2023-10-31T00:10:03;4.30;;;3.90;;
12356;SDS011;6243;51.244;6.774;2023-10-31T00:12:30;3.53;;;3.33;;
12356;SDS011;6243;51.244;6.774;2023-10-31T00:14:57;3.70;;;3.47;;
12356;SDS011;6243;51.244;6.774;2023-10-31T00:17:22;3.80;;;3.40;;
12356;SDS011;6243;51.244;6.774;2023-10-31T00:19:48;3.60;;;3.30;;
12356;SDS011;6243;51.244;6.774;2023-10-31T00:22:13;4.13;;;3.63;;
12356;SDS011;6243;51.244;6.774;2023-10-31T00:24:39;4.30;;;4.00;;
12356;SDS011;6243;51.244;6.774;2023-10-31T00:27:05;3.90;;;3.60;;
12356;SDS011;6243;51.244;6.774;2023-10-31T00:29:32;3.17;;;2.87;;
12356;SDS011;6243;51.244;6.774;2023-10-31T00:31:57;3.40;;;3.00;;
12356;SDS011;6243;51.244;6.774;2023-10-31T00:34:23;3.53;;;3.23;;
12356;SDS011;6243;51.244;6.774;2023-10-31T00:36:49;3.10;;;2.90;;
12356;SDS011;6243;51.244;6.774;2023-10-31T00:39:15;3.37;;;3.07;;
12356;SDS011;6243;51.244;6.774;2023-10-31T00:41:43;2.97;;;2.77;;
12356;SDS011;6243;51.244;6.774;2023-10-31T00:44:09;4.17;;;3.37;;
12356;SDS011;6243;51.244;6.774;2023-10-31T00:46:36;3.53;;;3.23;;
12356;SDS011;6243;51.244;6.774;2023-10-31T00:49:02;3.97;;;3.67;;
12356;SDS011;6243;51.244;6.774;2023-10-31T00:51:28;3.03;;;2.73;;
12356;SDS011;6243;51.244;6.774;2023-10-31T00:53:54;3.17;;;2.87;;
12356;SDS011;6243;51.244;6.774;2023-10-31T00:56:19;3.03;;;2.83;;
12356;SDS011;6243;51.244;6.774;2023-10-31T00:58:45;3.17;;;2.40;;
12356;SDS011;6243;51.244;6.774;2023-10-31T01:01:11;2.63;;;2.43;;
12356;SDS011;6243;51.244;6.774;2023-10-31T01:03:38;2.20;;;1.57;;
12356;SDS011;6243;51.244;6.774;2023-10-31T01:06:04;2.57;;;1.80;;
12356;SDS011;6243;51.244;6.774;2023-10-31T01:08:29;1.93;;;1.80;;
12356;SDS011;6243;51.244;6.774;2023-10-31T01:10:55;4.33;;;2.47;;
12356;SDS011;6243;51.244;6.774;2023-10-31T01:13:21;3.47;;;1.80;;
12356;SDS011;6243;51.244;6.774;2023-10-31T01:15:46;1.97;;;1.53;;
12356;SDS011;6243;51.244;6.774;2023-10-31T01:18:12;2.97;;;1.80;;
12356;SDS011;6243;51.244;6.774;2023-10-31T01:20:39;2.20;;;1.97;;
12356;SDS011;6243;51.244;6.774;2023-10-31T01:23:05;2.97;;;2.30;;
12356;SDS011;6243;51.244;6.774;2023-10-31T01:25:30;2.30;;;2.10;;
12356;SDS011;6243;51.244;6.774;2023-10-31T01:27:56;2.80;;;2.10;;
12356;SDS011;6243;51.244;6.774;2023-10-31T01:30:22;2.87;;;2.10;;
12356;SDS011;6243;51.244;6.774;2023-10-31T01:32:47;4.70;;;2.47;;
12356;SDS011;6243;51.244;6.774;2023-10-31T01:35:13;3.07;;;2.40;;
12356;SDS011;6243;51.244;6.774;2023-10-31T01:37:40;4.60;;;3.07;;
12356;SDS011;6243;51.244;6.774;2023-10-31T01:40:06;4.37;;;2.80;;
12356;SDS011;6243;51.244;6.774;2023-10-31T01:42:32;4.10;;;2.67;;
12356;SDS011;6243;51.244;6.774;2023-10-31T01:44:58;3.77;;;2.40;;
12356;SDS011;6243;51.244;6.774;2023-10-31T01:47:24;4.73;;;2.67;;
12356;SDS011;6243;51.244;6.774;2023-10-31T01:49:50;3.50;;;2.40;;
12356;SDS011;6243;51.244;6.774;2023-10-31T01:52:16;3.57;;;2.47;;
12356;SDS011;6243;51.244;6.774;2023-10-31T01:54:43;4.10;;;3.10;;
12356;SDS011;6243;51.244;6.774;2023-10-31T01:57:09;3.13;;;2.33;;
12356;SDS011;6243;51.244;6.774;2023-10-31T01:59:35;3.13;;;2.73;;
12356;SDS011;6243;51.244;6.774;2023-10-31T02:02:01;3.80;;;2.57;;
12356;SDS011;6243;51.244;6.774;2023-10-31T02:04:28;5.43;;;3.00;;
12356;SDS011;6243;51.244;6.774;2023-10-31T02:06:54;4.03;;;3.00;;
12356;SDS011;6243;51.244;6.774;2023-10-31T02:09:21;3.63;;;2.80;;
12356;SDS011;6243;51.244;6.774;2023-10-31T02:11:49;5.40;;;3.60;;
12356;SDS011;6243;51.244;6.774;2023-10-31T02:14:14;6.50;;;3.70;;
12356;SDS011;6243;51.244;6.774;2023-10-31T02:16:40;3.87;;;3.27;;
12356;SDS011;6243;51.244;6.774;2023-10-31T02:19:06;3.97;;;3.57;;
12356;SDS011;6243;51.244;6.774;2023-10-31T02:21:32;5.30;;;3.97;;
12356;SDS011;6243;51.244;6.774;2023-10-31T02:23:59;6.00;;;3.73;;
12356;SDS011;6243;51.244;6.774;2023-10-31T02:26:28;3.70;;;3.27;;
12356;SDS011;6243;51.244;6.774;2023-10-31T02:28:54;5.80;;;3.80;;
12356;SDS011;6243;51.244;6.774;2023-10-31T02:31:19;6.03;;;4.40;;
12356;SDS011;6243;51.244;6.774;2023-10-31T02:33:45;3.97;;;3.57;;
12356;SDS011;6243;51.244;6.774;2023-10-31T02:36:11;5.87;;;4.17;;
12356;SDS011;6243;51.244;6.774;2023-10-31T02:38:36;6.13;;;4.40;;
12356;SDS011;6243;51.244;6.774;2023-10-31T02:41:03;4.70;;;3.93;;
12356;SDS011;6243;51.244;6.774;2023-10-31T02:43:29;7.87;;;4.50;;
12356;SDS011;6243;51.244;6.774;2023-10-31T02:45:55;6.03;;;4.10;;
12356;SDS011;6243;51.244;6.774;2023-10-31T02:48:20;6.13;;;4.50;;
12356;SDS011;6243;51.244;6.774;2023-10-31T02:50:46;5.87;;;4.80;;
12356;SDS011;6243;51.244;6.774;2023-10-31T02:53:12;6.00;;;4.90;;
12356;SDS011;6243;51.244;6.774;2023-10-31T02:55:37;6.27;;;4.97;;
12356;SDS011;6243;51.244;6.774;2023-10-31T02:58:04;6.07;;;5.10;;
12356;SDS011;6243;51.244;6.774;2023-10-31T03:00:30;7.43;;;5.27;;
12356;SDS011;6243;51.244;6.774;2023-10-31T03:02:56;9.53;;;5.90;;
12356;SDS011;6243;51.244;6.774;2023-10-31T03:05:21;7.57;;;5.00;;
12356;SDS011;6243;51.244;6.774;2023-10-31T03:07:47;8.20;;;5.90;;
12356;SDS011;6243;51.244;6.774;2023-10-31T03:10:12;9.87;;;6.53;;
12356;SDS011;6243;51.244;6.774;2023-10-31T03:12:38;6.10;;;5.50;;
12356;SDS011;6243;51.244;6.774;2023-10-31T03:15:06;6.97;;;5.53;;
12356;SDS011;6243;51.244;6.774;2023-10-31T03:17:32;6.80;;;5.70;;
12356;SDS011;6243;51.244;6.774;2023-10-31T03:19:58;6.00;;;5.40;;
12356;SDS011;6243;51.244;6.774;2023-10-31T03:22:24;7.77;;;5.23;;
12356;SDS011;6243;51.244;6.774;2023-10-31T03:24:49;8.97;;;5.80;;
12356;SDS011;6243;51.244;6.774;2023-10-31T03:27:15;7.10;;;5.50;;
12356;SDS011;6243;51.244;6.774;2023-10-31T03:29:40;7.37;;;5.30;;
12356;SDS011;6243;51.244;6.774;2023-10-31T03:32:07;5.40;;;4.70;;
12356;SDS011;6243;51.244;6.774;2023-10-31T03:34:33;7.07;;;5.33;;
12356;SDS011;6243;51.244;6.774;2023-10-31T03:36:59;5.57;;;4.97;;
12356;SDS011;6243;51.244;6.774;2023-10-31T03:39:24;8.47;;;5.07;;
12356;SDS011;6243;51.244;6.774;2023-10-31T03:41:50;7.27;;;4.37;;
12356;SDS011;6243;51.244;6.774;2023-10-31T03:44:16;7.33;;;5.50;;
12356;SDS011;6243;51.244;6.774;2023-10-31T03:46:41;6.80;;;5.17;;
12356;SDS011;6243;51.244;6.774;2023-10-31T03:49:08;6.53;;;4.80;;
12356;SDS011;6243;51.244;6.774;2023-10-31T03:51:34;7.03;;;4.60;;
12356;SDS011;6243;51.244;6.774;2023-10-31T03:53:59;5.40;;;4.47;;
12356;SDS011;6243;51.244;6.774;2023-10-31T03:56:25;5.43;;;4.57;;
12356;SDS011;6243;51.244;6.774;2023-10-31T03:58:51;7.47;;;5.27;;
12356;SDS011;6243;51.244;6.774;2023-10-31T04:01:17;6.60;;;4.90;;
12356;SDS011;6243;51.244;6.774;2023-10-31T04:03:43;4.87;;;4.30;;
12356;SDS011;6243;51.244;6.774;2023-10-31T04:06:10;4.50;;;4.00;;
12356;SDS011;6243;51.244;6.774;2023-10-31T04:08:36;4.30;;;3.90;;
12356;SDS011;6243;51.244;6.774;2023-10-31T04:11:01;5.00;;;4.27;;
12356;SDS011;6243;51.244;6.774;2023-10-31T04:13:27;4.47;;;3.87;;
12356;SDS011;6243;51.244;6.774;2023-10-31T04:15:53;5.93;;;3.73;;
12356;SDS011;6243;51.244;6.774;2023-10-31T04:18:19;4.70;;;3.57;;
12356;SDS011;6243;51.244;6.774;2023-10-31T04:20:44;5.03;;;4.20;;
12356;SDS011;6243;51.244;6.774;2023-10-31T04:23:11;5.33;;;4.40;;
12356;SDS011;6243;51.244;6.774;2023-10-31T04:25:37;4.53;;;4.00;;
12356;SDS011;6243;51.244;6.774;2023-10-31T04:28:03;5.37;;;4.37;;
12356;SDS011;6243;51.244;6.774;2023-10-31T04:30:28;6.47;;;4.80;;
12356;SDS011;6243;51.244;6.774;2023-10-31T04:32:54;4.30;;;3.90;;
12356;SDS011;6243;51.244;6.774;2023-10-31T04:35:20;7.70;;;4.40;;
12356;SDS011;6243;51.244;6.774;2023-10-31T04:37:46;3.60;;;3.30;;
12356;SDS011;6243;51.244;6.774;2023-10-31T04:40:13;4.90;;;3.93;;
12356;SDS011;6243;51.244;6.774;2023-10-31T04:42:39;4.90;;;4.30;;
12356;SDS011;6243;51.244;6.774;2023-10-31T04:45:05;5.27;;;4.00;;
12356;SDS011;6243;51.244;6.774;2023-10-31T04:47:32;5.50;;;3.80;;
12356;SDS011;6243;51.244;6.774;2023-10-31T04:49:57;3.70;;;3.40;;
12356;SDS011;6243;51.244;6.774;2023-10-31T04:52:23;4.10;;;3.67;;
12356;SDS011;6243;51.244;6.774;2023-10-31T04:54:49;6.03;;;3.70;;
12356;SDS011;6243;51.244;6.774;2023-10-31T04:57:16;5.03;;;4.03;;
12356;SDS011;6243;51.244;6.774;2023-10-31T04:59:41;6.33;;;4.10;;
12356;SDS011;6243;51.244;6.774;2023-10-31T05:02:07;4.93;;;4.40;;
12356;SDS011;6243;51.244;6.774;2023-10-31T05:04:33;4.67;;;4.10;;
12356;SDS011;6243;51.244;6.774;2023-10-31T05:06:58;4.87;;;4.23;;
12356;SDS011;6243;51.244;6.774;2023-10-31T05:09:24;4.43;;;3.87;;
12356;SDS011;6243;51.244;6.774;2023-10-31T05:11:50;4.27;;;3.87;;
12356;SDS011;6243;51.244;6.774;2023-10-31T05:14:17;5.93;;;4.07;;
12356;SDS011;6243;51.244;6.774;2023-10-31T05:16:42;4.53;;;4.13;;
12356;SDS011;6243;51.244;6.774;2023-10-31T05:19:08;6.90;;;4.57;;
12356;SDS011;6243;51.244;6.774;2023-10-31T05:21:34;4.60;;;4.20;;
12356;SDS011;6243;51.244;6.774;2023-10-31T05:23:59;4.53;;;4.13;;
12356;SDS011;6243;51.244;6.774;2023-10-31T05:26:25;4.83;;;4.17;;
12356;SDS011;6243;51.244;6.774;2023-10-31T05:28:51;5.47;;;4.60;;
12356;SDS011;6243;51.244;6.774;2023-10-31T05:31:18;4.80;;;4.30;;
12356;SDS011;6243;51.244;6.774;2023-10-31T05:33:43;4.70;;;4.20;;
12356;SDS011;6243;51.244;6.774;2023-10-31T05:36:17;5.50;;;4.70;;
12356;SDS011;6243;51.244;6.774;2023-10-31T05:38:43;4.93;;;4.30;;
12356;SDS011;6243;51.244;6.774;2023-10-31T05:41:09;5.10;;;4.60;;
12356;SDS011;6243;51.244;6.774;2023-10-31T05:43:34;4.77;;;4.07;;
12356;SDS011;6243;51.244;6.774;2023-10-31T05:46:00;4.50;;;4.10;;
12356;SDS011;6243;51.244;6.774;2023-10-31T05:48:27;4.80;;;4.20;;
12356;SDS011;6243;51.244;6.774;2023-10-31T05:50:53;5.00;;;4.50;;
12356;SDS011;6243;51.244;6.774;2023-10-31T05:53:18;5.07;;;4.37;;
12356;SDS011;6243;51.244;6.774;2023-10-31T05:55:44;5.57;;;4.37;;
12356;SDS011;6243;51.244;6.774;2023-10-31T05:58:10;4.83;;;4.10;;
12356;SDS011;6243;51.244;6.774;2023-10-31T06:00:35;4.73;;;3.93;;
12356;SDS011;6243;51.244;6.774;2023-10-31T06:03:02;4.43;;;4.03;;
12356;SDS011;6243;51.244;6.774;2023-10-31T06:05:29;3.40;;;2.93;;
12356;SDS011;6243;51.244;6.774;2023-10-31T06:07:55;3.77;;;3.30;;
12356;SDS011;6243;51.244;6.774;2023-10-31T06:10:21;3.50;;;3.20;;
12356;SDS011;6243;51.244;6.774;2023-10-31T06:12:46;3.93;;;3.57;;
12356;SDS011;6243;51.244;6.774;2023-10-31T06:15:12;4.00;;;3.40;;
12356;SDS011;6243;51.244;6.774;2023-10-31T06:17:38;3.77;;;3.47;;
12356;SDS011;6243;51.244;6.774;2023-10-31T06:20:04;3.60;;;3.30;;
12356;SDS011;6243;51.244;6.774;2023-10-31T06:22:33;3.90;;;3.53;;
12356;SDS011;6243;51.244;6.774;2023-10-31T06:24:59;4.03;;;3.20;;
12356;SDS011;6243;51.244;6.774;2023-10-31T06:27:24;4.10;;;3.70;;
12356;SDS011;6243;51.244;6.774;2023-10-31T06:29:50;4.00;;;3.60;;
12356;SDS011;6243;51.244;6.774;2023-10-31T06:32:16;4.50;;;4.10;;
12356;SDS011;6243;51.244;6.774;2023-10-31T06:34:41;5.00;;;4.60;;
12356;SDS011;6243;51.244;6.774;2023-10-31T06:37:07;5.17;;;4.67;;
12356;SDS011;6243;51.244;6.774;2023-10-31T06:39:34;5.67;;;5.03;;
12356;SDS011;6243;51.244;6.774;2023-10-31T06:41:59;5.90;;;5.40;;
12356;SDS011;6243;51.244;6.774;2023-10-31T06:44:25;7.40;;;5.67;;
12356;SDS011;6243;51.244;6.774;2023-10-31T06:46:51;6.20;;;5.40;;
12356;SDS011;6243;51.244;6.774;2023-10-31T06:49:16;6.60;;;6.00;;
12356;SDS011;6243;51.244;6.774;2023-10-31T06:51:42;6.03;;;5.53;;
12356;SDS011;6243;51.244;6.774;2023-10-31T06:54:08;7.07;;;6.37;;
12356;SDS011;6243;51.244;6.774;2023-10-31T06:56:35;6.93;;;6.30;;
12356;SDS011;6243;51.244;6.774;2023-10-31T06:59:00;8.00;;;6.37;;
12356;SDS011;6243;51.244;6.774;2023-10-31T07:01:26;7.20;;;6.37;;
12356;SDS011;6243;51.244;6.774;2023-10-31T07:03:52;7.90;;;7.10;;
12356;SDS011;6243;51.244;6.774;2023-10-31T07:06:17;9.00;;;6.83;;
12356;SDS011;6243;51.244;6.774;2023-10-31T07:08:43;6.93;;;6.23;;
12356;SDS011;6243;51.244;6.774;2023-10-31T07:11:09;7.70;;;6.27;;
12356;SDS011;6243;51.244;6.774;2023-10-31T07:13:36;6.90;;;5.73;;
12356;SDS011;6243;51.244;6.774;2023-10-31T07:16:01;6.00;;;5.40;;
12356;SDS011;6243;51.244;6.774;2023-10-31T07:18:27;6.40;;;5.90;;
12356;SDS011;6243;51.244;6.774;2023-10-31T07:20:53;6.50;;;5.90;;
12356;SDS011;6243;51.244;6.774;2023-10-31T07:23:19;6.47;;;5.87;;
12356;SDS011;6243;51.244;6.774;2023-10-31T07:25:44;6.40;;;5.37;;
12356;SDS011;6243;51.244;6.774;2023-10-31T07:28:10;6.83;;;5.67;;
12356;SDS011;6243;51.244;6.774;2023-10-31T07:30:37;5.97;;;5.43;;
12356;SDS011;6243;51.244;6.774;2023-10-31T07:33:03;6.77;;;5.83;;
12356;SDS011;6243;51.244;6.774;2023-10-31T07:35:28;6.37;;;5.77;;
12356;SDS011;6243;51.244;6.774;2023-10-31T07:37:54;9.13;;;6.33;;
12356;SDS011;6243;51.244;6.774;2023-10-31T07:40:20;6.37;;;5.77;;
12356;SDS011;6243;51.244;6.774;2023-10-31T07:42:45;6.50;;;5.90;;
12356;SDS011;6243;51.244;6.774;2023-10-31T07:45:11;6.70;;;5.63;;
12356;SDS011;6243;51.244;6.774;2023-10-31T07:47:38;8.93;;;6.30;;
12356;SDS011;6243;51.244;6.774;2023-10-31T07:50:04;7.27;;;6.57;;
12356;SDS011;6243;51.244;6.774;2023-10-31T07:52:30;7.10;;;6.50;;
12356;SDS011;6243;51.244;6.774;2023-10-31T07:54:56;6.80;;;5.97;;
12356;SDS011;6243;51.244;6.774;2023-10-31T07:57:22;7.50;;;6.13;;
12356;SDS011;6243;51.244;6.774;2023-10-31T07:59:47;6.30;;;5.73;;
12356;SDS011;6243;51.244;6.774;2023-10-31T08:02:13;5.83;;;5.23;;
12356;SDS011;6243;51.244;6.774;2023-10-31T08:04:40;6.43;;;4.83;;
12356;SDS011;6243;51.244;6.774;2023-10-31T08:07:06;5.30;;;4.80;;
12356;SDS011;6243;51.244;6.774;2023-10-31T08:09:31;6.60;;;5.93;;
12356;SDS011;6243;51.244;6.774;2023-10-31T08:11:57;6.23;;;5.60;;
12356;SDS011;6243;51.244;6.774;2023-10-31T08:14:23;4.73;;;4.33;;
12356;SDS011;6243;51.244;6.774;2023-10-31T08:16:48;6.40;;;5.40;;
12356;SDS011;6243;51.244;6.774;2023-10-31T08:19:14;5.80;;;5.00;;
12356;SDS011;6243;51.244;6.774;2023-10-31T08:21:41;6.00;;;5.40;;
12356;SDS011;6243;51.244;6.774;2023-10-31T08:24:07;5.63;;;5.13;;
12356;SDS011;6243;51.244;6.774;2023-10-31T08:26:33;6.13;;;5.27;;
12356;SDS011;6243;51.244;6.774;2023-10-31T08:28:59;5.90;;;5.30;;
12356;SDS011;6243;51.244;6.774;2023-10-31T08:31:25;5.73;;;5.20;;
12356;SDS011;6243;51.244;6.774;2023-10-31T08:33:50;6.93;;;5.37;;
12356;SDS011;6243;51.244;6.774;2023-10-31T08:36:16;5.97;;;5.37;;
12356;SDS011;6243;51.244;6.774;2023-10-31T08:38:43;5.93;;;5.30;;
12356;SDS011;6243;51.244;6.774;2023-10-31T08:41:09;7.23;;;5.17;;
12356;SDS011;6243;51.244;6.774;2023-10-31T08:43:34;5.23;;;4.43;;
12356;SDS011;6243;51.244;6.774;2023-10-31T08:46:00;5.73;;;5.23;;
12356;SDS011;6243;51.244;6.774;2023-10-31T08:48:26;5.30;;;4.80;;
12356;SDS011;6243;51.244;6.774;2023-10-31T08:50:52;5.63;;;5.13;;
12356;SDS011;6243;51.244;6.774;2023-10-31T08:53:17;5.60;;;5.10;;
12356;SDS011;6243;51.244;6.774;2023-10-31T08:55:44;5.23;;;4.77;;
12356;SDS011;6243;51.244;6.774;2023-10-31T08:58:10;6.30;;;5.50;;
12356;SDS011;6243;51.244;6.774;2023-10-31T09:00:36;6.43;;;5.00;;
12356;SDS011;6243;51.244;6.774;2023-10-31T09:03:01;6.17;;;5.40;;
12356;SDS011;6243;51.244;6.774;2023-10-31T09:05:27;6.50;;;5.90;;
12356;SDS011;6243;51.244;6.774;2023-10-31T09:07:53;5.80;;;5.20;;
12356;SDS011;6243;51.244;6.774;2023-10-31T09:10:19;6.20;;;5.60;;
12356;SDS011;6243;51.244;6.774;2023-10-31T09:12:46;6.10;;;5.57;;
12356;SDS011;6243;51.244;6.774;2023-10-31T09:15:11;6.50;;;5.90;;
12356;SDS011;6243;51.244;6.774;2023-10-31T09:17:37;6.40;;;5.77;;
12356;SDS011;6243;51.244;6.774;2023-10-31T09:20:03;7.43;;;6.27;;
12356;SDS011;6243;51.244;6.774;2023-10-31T09:22:29;6.90;;;6.00;;
12356;SDS011;6243;51.244;6.774;2023-10-31T09:24:55;5.77;;;5.27;;
12356;SDS011;6243;51.244;6.774;2023-10-31T09:27:20;6.67;;;6.07;;
12356;SDS011;6243;51.244;6.774;2023-10-31T09:29:47;7.30;;;6.00;;
12356;SDS011;6243;51.244;6.774;2023-10-31T09:32:14;8.53;;;6.77;;
12356;SDS011;6243;51.244;6.774;2023-10-31T09:34:40;7.60;;;5.70;;
12356;SDS011;6243;51.244;6.774;2023-10-31T09:37:05;9.43;;;5.97;;
12356;SDS011;6243;51.244;6.774;2023-10-31T09:39:31;6.30;;;5.70;;
12356;SDS011;6243;51.244;6.774;2023-10-31T09:41:57;6.93;;;5.50;;
12356;SDS011;6243;51.244;6.774;2023-10-31T09:44:22;6.07;;;5.47;;
12356;SDS011;6243;51.244;6.774;2023-10-31T09:46:50;5.57;;;5.07;;
12356;SDS011;6243;51.244;6.774;2023-10-31T09:49:17;5.50;;;5.00;;
12356;SDS011;6243;51.244;6.774;2023-10-31T09:51:43;6.60;;;5.00;;
12356;SDS011;6243;51.244;6.774;2023-10-31T09:54:11;5.90;;;5.30;;
12356;SDS011;6243;51.244;6.774;2023-10-31T09:56:39;7.93;;;5.00;;
12356;SDS011;6243;51.244;6.774;2023-10-31T09:59:05;7.90;;;4.70;;
12356;SDS011;6243;51.244;6.774;2023-10-31T10:01:30;6.40;;;4.40;;
12356;SDS011;6243;51.244;6.774;2023-10-31T10:03:57;4.43;;;4.03;;
12356;SDS011;6243;51.244;6.774;2023-10-31T10:06:24;4.43;;;3.60;;
12356;SDS011;6243;51.244;6.774;2023-10-31T10:08:50;5.33;;;3.47;;
12356;SDS011;6243;51.244;6.774;2023-10-31T10:11:15;4.23;;;3.83;;
12356;SDS011;6243;51.244;6.774;2023-10-31T10:13:41;4.77;;;3.83;;
12356;SDS011;6243;51.244;6.774;2023-10-31T10:16:07;4.90;;;3.40;;
12356;SDS011;6243;51.244;6.774;2023-10-31T10:18:34;4.40;;;3.77;;
12356;SDS011;6243;51.244;6.774;2023-10-31T10:21:03;4.40;;;3.13;;
12356;SDS011;6243;51.244;6.774;2023-10-31T10:23:30;5.00;;;3.10;;
12356;SDS011;6243;51.244;6.774;2023-10-31T10:25:56;4.07;;;3.40;;
12356;SDS011;6243;51.244;6.774;2023-10-31T10:28:23;3.37;;;2.73;;
12356;SDS011;6243;51.244;6.774;2023-10-31T10:30:50;5.23;;;2.77;;
12356;SDS011;6243;51.244;6.774;2023-10-31T10:33:16;4.17;;;2.80;;
12356;SDS011;6243;51.244;6.774;2023-10-31T10:35:42;4.20;;;3.00;;
12356;SDS011;6243;51.244;6.774;2023-10-31T10:38:11;3.93;;;2.63;;
12356;SDS011;6243;51.244;6.774;2023-10-31T10:40:38;3.80;;;2.43;;
12356;SDS011;6243;51.244;6.774;2023-10-31T10:43:05;3.20;;;2.20;;
12356;SDS011;6243;51.244;6.774;2023-10-31T10:45:33;2.80;;;2.30;;
12356;SDS011;6243;51.244;6.774;2023-10-31T10:48:01;3.97;;;2.60;;
12356;SDS011;6243;51.244;6.774;2023-10-31T10:50:35;2.70;;;2.10;;
12356;SDS011;6243;51.244;6.774;2023-10-31T10:53:07;2.97;;;2.10;;
12356;SDS011;6243;51.244;6.774;2023-10-31T10:55:44;3.20;;;2.50;;
12356;SDS011;6243;51.244;6.774;2023-10-31T10:58:13;4.13;;;2.60;;
12356;SDS011;6243;51.244;6.774;2023-10-31T11:00:47;2.03;;;1.87;;
12356;SDS011;6243;51.244;6.774;2023-10-31T11:03:15;2.10;;;1.90;;
12356;SDS011;6243;51.244;6.774;2023-10-31T11:05:42;2.57;;;1.80;;
12356;SDS011;6243;51.244;6.774;2023-10-31T11:08:08;1.67;;;1.57;;
12356;SDS011;6243;51.244;6.774;2023-10-31T11:10:36;4.30;;;1.90;;
12356;SDS011;6243;51.244;6.774;2023-10-31T11:13:03;4.90;;;2.00;;
12356;SDS011;6243;51.244;6.774;2023-10-31T11:15:29;2.13;;;1.97;;
12356;SDS011;6243;51.244;6.774;2023-10-31T11:17:55;3.33;;;1.70;;
12356;SDS011;6243;51.244;6.774;2023-10-31T11:20:22;3.13;;;1.60;;
12356;SDS011;6243;51.244;6.774;2023-10-31T11:22:49;4.67;;;1.93;;
12356;SDS011;6243;51.244;6.774;2023-10-31T11:25:20;2.37;;;1.77;;
12356;SDS011;6243;51.244;6.774;2023-10-31T11:27:47;2.37;;;1.70;;
12356;SDS011;6243;51.244;6.774;2023-10-31T11:30:21;2.33;;;1.70;;
12356;SDS011;6243;51.244;6.774;2023-10-31T11:32:51;1.63;;;1.47;;
12356;SDS011;6243;51.244;6.774;2023-10-31T11:35:17;2.50;;;1.60;;
12356;SDS011;6243;51.244;6.774;2023-10-31T11:37:43;2.97;;;1.67;;
12356;SDS011;6243;51.244;6.774;2023-10-31T11:40:19;2.00;;;1.80;;
12356;SDS011;6243;51.244;6.774;2023-10-31T11:42:51;2.10;;;1.57;;
12356;SDS011;6243;51.244;6.774;2023-10-31T11:45:27;2.40;;;1.83;;
12356;SDS011;6243;51.244;6.774;2023-10-31T11:47:53;1.83;;;1.40;;
12356;SDS011;6243;51.244;6.774;2023-10-31T11:50:20;3.10;;;1.60;;
12356;SDS011;6243;51.244;6.774;2023-10-31T11:52:57;1.87;;;1.50;;
12356;SDS011;6243;51.244;6.774;2023-10-31T11:55:24;2.90;;;1.40;;
12356;SDS011;6243;51.244;6.774;2023-10-31T11:57:51;2.70;;;1.60;;
12356;SDS011;6243;51.244;6.774;2023-10-31T12:00:20;1.87;;;1.37;;
12356;SDS011;6243;51.244;6.774;2023-10-31T12:02:56;3.23;;;1.70;;
12356;SDS011;6243;51.244;6.774;2023-10-31T12:05:22;2.77;;;1.90;;
12356;SDS011;6243;51.244;6.774;2023-10-31T12:07:48;1.60;;;1.50;;
12356;SDS011;6243;51.244;6.774;2023-10-31T12:10:15;1.67;;;1.57;;
12356;SDS011;6243;51.244;6.774;2023-10-31T12:12:47;3.17;;;1.57;;
12356;SDS011;6243;51.244;6.774;2023-10-31T12:15:14;3.97;;;1.63;;
12356;SDS011;6243;51.244;6.774;2023-10-31T12:17:40;2.33;;;1.53;;
12356;SDS011;6243;51.244;6.774;2023-10-31T12:20:06;5.00;;;1.80;;
12356;SDS011;6243;51.244;6.774;2023-10-31T12:22:33;2.00;;;1.60;;
12356;SDS011;6243;51.244;6.774;2023-10-31T12:25:01;2.73;;;1.60;;
12356;SDS011;6243;51.244;6.774;2023-10-31T12:27:41;3.73;;;1.60;;
12356;SDS011;6243;51.244;6.774;2023-10-31T12:30:07;2.17;;;1.53;;
12356;SDS011;6243;51.244;6.774;2023-10-31T12:32:35;2.23;;;1.60;;
12356;SDS011;6243;51.244;6.774;2023-10-31T12:35:01;2.00;;;1.60;;
12356;SDS011;6243;51.244;6.774;2023-10-31T12:37:27;1.80;;;1.20;;
12356;SDS011;6243;51.244;6.774;2023-10-31T12:39:53;2.40;;;1.70;;
12356;SDS011;6243;51.244;6.774;2023-10-31T12:42:19;2.20;;;1.70;;
12356;SDS011;6243;51.244;6.774;2023-10-31T12:44:45;2.53;;;1.80;;
12356;SDS011;6243;51.244;6.774;2023-10-31T12:47:11;1.83;;;1.73;;
12356;SDS011;6243;51.244;6.774;2023-10-31T12:49:47;2.17;;;1.93;;
12356;SDS011;6243;51.244;6.774;2023-10-31T12:52:13;3.13;;;1.80;;
12356;SDS011;6243;51.244;6.774;2023-10-31T12:54:39;2.00;;;1.80;;
12356;SDS011;6243;51.244;6.774;2023-10-31T12:57:05;2.70;;;1.90;;
12356;SDS011;6243;51.244;6.774;2023-10-31T12:59:32;2.67;;;1.70;;
12356;SDS011;6243;51.244;6.774;2023-10-31T13:01:58;1.83;;;1.73;;
12356;SDS011;6243;51.244;6.774;2023-10-31T13:04:25;3.63;;;1.80;;
12356;SDS011;6243;51.244;6.774;2023-10-31T13:07:02;2.07;;;1.87;;
12356;SDS011;6243;51.244;6.774;2023-10-31T13:09:29;2.80;;;1.80;;
12356;SDS011;6243;51.244;6.774;2023-10-31T13:11:57;4.20;;;1.80;;
12356;SDS011;6243;51.244;6.774;2023-10-31T13:14:23;3.03;;;1.70;;
12356;SDS011;6243;51.244;6.774;2023-10-31T13:16:48;2.10;;;1.90;;
12356;SDS011;6243;51.244;6.774;2023-10-31T13:19:14;1.80;;;1.50;;
12356;SDS011;6243;51.244;6.774;2023-10-31T13:21:41;2.73;;;1.60;;
12356;SDS011;6243;51.244;6.774;2023-10-31T13:24:08;2.97;;;1.63;;
12356;SDS011;6243;51.244;6.774;2023-10-31T13:26:34;1.93;;;1.40;;
12356;SDS011;6243;51.244;6.774;2023-10-31T13:29:00;2.37;;;1.70;;
12356;SDS011;6243;51.244;6.774;2023-10-31T13:31:26;2.90;;;1.30;;
12356;SDS011;6243;51.244;6.774;2023-10-31T13:33:51;1.23;;;1.13;;
12356;SDS011;6243;51.244;6.774;2023-10-31T13:36:17;2.30;;;1.27;;
12356;SDS011;6243;51.244;6.774;2023-10-31T13:38:42;2.17;;;1.30;;
12356;SDS011;6243;51.244;6.774;2023-10-31T13:41:10;3.97;;;1.30;;
12356;SDS011;6243;51.244;6.774;2023-10-31T13:43:35;1.97;;;1.20;;
12356;SDS011;6243;51.244;6.774;2023-10-31T13:46:01;1.70;;;1.13;;
12356;SDS011;6243;51.244;6.774;2023-10-31T13:48:27;3.30;;;1.37;;
12356;SDS011;6243;51.244;6.774;2023-10-31T13:50:52;2.73;;;1.33;;
12356;SDS011;6243;51.244;6.774;2023-10-31T13:53:18;1.53;;;1.20;;
12356;SDS011;6243;51.244;6.774;2023-10-31T13:55:44;2.63;;;1.20;;
12356;SDS011;6243;51.244;6.774;2023-10-31T13:58:11;1.83;;;1.03;;
12356;SDS011;6243;51.244;6.774;2023-10-31T14:00:36;3.47;;;1.30;;
12356;SDS011;6243;51.244;6.774;2023-10-31T14:03:02;2.47;;;1.10;;
12356;SDS011;6243;51.244;6.774;2023-10-31T14:05:28;3.13;;;1.10;;
12356;SDS011;6243;51.244;6.774;2023-10-31T14:07:54;1.47;;;1.27;;
12356;SDS011;6243;51.244;6.774;2023-10-31T14:10:19;2.40;;;1.30;;
12356;SDS011;6243;51.244;6.774;2023-10-31T14:12:45;3.53;;;1.17;;
12356;SDS011;6243;51.244;6.774;2023-10-31T14:15:12;1.87;;;1.30;;
12356;SDS011;6243;51.244;6.774;2023-10-31T14:17:38;3.30;;;1.30;;
12356;SDS011;6243;51.244;6.774;2023-10-31T14:20:04;3.57;;;1.60;;
12356;SDS011;6243;51.244;6.774;2023-10-31T14:22:31;4.93;;;1.60;;
12356;SDS011;6243;51.244;6.774;2023-10-31T14:24:56;5.43;;;1.57;;
12356;SDS011;6243;51.244;6.774;2023-10-31T14:27:22;4.90;;;1.40;;
12356;SDS011;6243;51.244;6.774;2023-10-31T14:29:48;3.77;;;1.40;;
12356;SDS011;6243;51.244;6.774;2023-10-31T14:32:15;4.13;;;1.50;;
12356;SDS011;6243;51.244;6.774;2023-10-31T14:34:41;4.30;;;1.37;;
12356;SDS011;6243;51.244;6.774;2023-10-31T14:37:06;3.13;;;1.50;;
12356;SDS011;6243;51.244;6.774;2023-10-31T14:39:32;2.90;;;1.57;;
12356;SDS011;6243;51.244;6.774;2023-10-31T14:41:58;3.53;;;1.20;;
12356;SDS011;6243;51.244;6.774;2023-10-31T14:44:24;3.57;;;1.50;;
12356;SDS011;6243;51.244;6.774;2023-10-31T14:46:50;3.43;;;1.60;;
12356;SDS011;6243;51.244;6.774;2023-10-31T14:49:17;4.40;;;1.40;;
12356;SDS011;6243;51.244;6.774;2023-10-31T14:51:43;5.00;;;1.70;;
12356;SDS011;6243;51.244;6.774;2023-10-31T14:54:08;6.03;;;1.70;;